Tiempo atmosférico en la estación meteorológica de Cedrillas, Teruel (1380 m.)



Fecha
DESCASC
Temp. máxima en grados centígrados (hora)
DESCASC
Temp. mínima en grados centígrados (hora)
DESCASC
Temp. media en grados centígrados
DESCASC
Racha de viento máxima en m/sg (hora)
DESCASC
Velocidad máxima media en intervalos de 10 minutos(hora)
DESCASC
Precipitaciones diarias en mm
DESCASC
Precipitaciones de 00:00 a 06:00 en mm
DESCASC
Precipitaciones de 06:00 a 12:00 en mm
DESCASC
Precipitaciones de 12:00 a 18:00 en mm
DESCASC
Precipitaciones de 18:00 a 24:00 en mm
DESCASC
03-03-2020 9.9 (15:40) -0.8 (-00:0) 4.5 22.22 (16:20) 16.39 (16:20) 0 0 0 0 0
30-03-2020 1.7 (00:00) -3.1 (-00:0) -0.7 7.5 (10:20) 5.28 (10:40) 0 0 0 0 0
29-03-2020 12.7 (17:00) -2.3 (-00:0) 5.2 8.61 (16:10) 5.28 (16:00) 0 0 0 0 0
28-03-2020 9.3 (16:50) -3.4 (-00:0) 3 8.33 (10:20) 5.83 (11:40) 0 0 0 0 0
27-03-2020 6.9 (15:40) -4.6 (-00:0) 1.2 8.33 (10:20) 5.83 (10:20) 0.2 0.2 0 0 0
24-03-2020 6.8 (13:10) 0.7 (00:00) 3.8 9.72 (13:00) 7.22 (12:50) 0.2 0 0 0.2 0
21-03-2020 8.5 (14:00) -0.8 (-00:0) 3.8 8.06 (02:30) 6.11 (02:30) 0 0 0 0 0
15-03-2020 13.4 (15:10) 5.2 (00:00) 9.3 10.83 (14:40) 7.22 (18:50) 11.2 0 0 0 11.2
19-03-2020 11.5 (14:30) 0 (00:00) 5.8 8.61 (23:59) 6.11 (23:59) 0 0 0 0 0
20-03-2020 9.7 (14:00) 2.2 (00:00) 5.9 10.56 (14:50) 7.22 (00:20) 0 0 0 0 0
14-03-2020 17.1 (16:10) 1.7 (00:00) 9.4 7.5 (18:30) 5.83 (18:30) 0 0 0 0 0
12-03-2020 22.5 (15:00) 3.8 (00:00) 13.1 8.61 (14:30) 5.83 (16:20) 0 0 0 0 0
11-03-2020 21.4 (16:50) 7.6 (00:00) 14.5 12.22 (00:20) 8.89 (00:20) 0 0 0 0 0
10-03-2020 17.8 (17:50) 1.4 (00:00) 9.6 12.5 (06:30) 8.89 (10:30) 0 0 0 0 0
05-03-2020 11.7 (14:20) 2.9 (00:00) 7.3 19.72 (20:00) 14.17 (20:10) 0.2 0 0 0.2 0
04-03-2020 13.1 (17:20) 5.4 (03:50) 9.3 15.83 (06:30) 10.56 (01:00) 0 0 0 0 0
09-03-2020 9.2 (16:40) 3 (00:00) 6.1 16.39 (11:40) 11.11 (11:50) 0 0 0 0 0
08-03-2020 13.7 (16:00) -1.5 (-00:0) 6.1 10 (22:50) 7.22 (11:10) 0 0 0 0 0
13-03-2020 14 (15:40) 3.8 (07:10) 8.9 10 (13:40) 6.94 (13:40) 0 0 0 0 0
07-03-2020 7.8 (16:00) -1.3 (-00:0) 3.3 26.39 (12:20) 16.39 (12:10) 0 0 0 0 0
06-03-2020 4.6 (13:20) -0.9 (-00:0) 1.8 22.78 (14:00) 15.83 (11:10) 0.4 0 0 0.4 0
18-03-2020 9.9 (15:00) 2 (00:00) 5.9 6.11 (12:50) 4.72 (13:20) 0.2 0 0.2 0 0
26-03-2020 3.1 (15:30) -2.5 (-00:0) 0.3 17.5 (11:50) 11.67 (11:50) 0.4 0 0.2 0.2 0
23-03-2020 7.9 (13:30) 2.9 (00:00) 5.4 9.72 (13:50) 6.94 (13:50) 2.2 0.6 0.6 1 0
22-03-2020 6.5 (17:30) 3.1 (22:40) 4.8 6.67 (20:30) 4.72 (20:30) 2.6 0.2 1.6 0.8 0
16-03-2020 7.4 (10:00) 0.1 (00:00) 3.8 16.67 (09:40) 12.5 (09:50) 17.6 6.6 1.8 8.6 0.6
25-03-2020 6.5 (15:30) -0.3 (00:00) 3.1 10.28 (14:10) 6.39 (14:10) 3.4 0.8 2 0.6 0
02-03-2020 7.5 (03:10) -1 (-00:0) 3.3 28.06 (17:20) 16.39 (09:20) 4 0.6 3.2 0.2 0
17-03-2020 9.9 (17:20) 4.6 (00:00) 7.2 13.33 (14:30) 9.17 (14:30) 21 12.6 6.8 1.6 0
31-03-2020 7.3 (18:20) -3 (-00:0) 2.2 11.67 (17:30) 7.5 (17:20) 13 0 8 5 0

Gráficas

Temp. máximas Temp. mínimas Temp. medias Precipitaciones Rachas de viento máximas Velocidades máximas media en intervalos de 10 minutos

Datos horarios

Fecha y hora oficial Temperatura (ºC) Velocidad del viento (km/h) Dirección del viento Racha (km/h) Dirección de racha Precipitación (mm) Presión (hPa) Tendencia (hPa) Humedad (%)
2020-03-31 23:00:00 4.6 4 Sudoeste 15 Sudeste 0 -- -- 92
2020-03-31 22:00:00 4.8 9 Nordeste 14 Nordeste 0 -- -- 87
2020-03-31 21:00:00 4.8 5 Nordeste 21 Este 0 -- -- 88
2020-03-31 20:00:00 5.7 11 Sudeste 24 Este 0 -- -- 84
2020-03-31 19:00:00 6.3 19 Este 29 Este 0 -- -- 83
2020-03-31 18:00:00 7 19 Sudeste 42 Este 0 -- -- 80
2020-03-31 17:00:00 7 21 Sudeste 30 Sudeste 0 -- -- 81
2020-03-31 16:00:00 5.8 19 Sudeste 30 Sudeste 0 -- -- 88
2020-03-31 15:00:00 4.8 16 Sudeste 32 Sudeste 0 -- -- 91
2020-03-31 14:00:00 4.3 12 Sur 24 Sudeste 1.8 -- -- 94
2020-03-31 13:00:00 2.5 13 Sur 22 Sudeste 3.2 -- -- 96
2020-03-31 12:00:00 1.9 11 Sur 21 Sur 3.4 -- -- 97
2020-03-31 11:00:00 1.8 14 Sur 22 Sudeste 3 -- -- 96
2020-03-31 10:00:00 1.7 13 Sur 34 Sudeste 1.6 -- -- 94
2020-03-31 09:00:00 2.2 13 Sudeste 32 Este 0 -- -- 93
2020-03-31 08:00:00 0.3 10 Sur 19 Sudeste 0 -- -- 100
2020-03-31 07:00:00 -0.4 9 Sur 18 Sudeste 0 -- -- 100
2020-03-31 06:00:00 -2.1 5 Oeste 7 Oeste 0 -- -- 99
2020-03-31 05:00:00 -2.7 0 Calma 5 Sudoeste 0 -- -- 99
2020-03-31 04:00:00 -2.9 2 Sudoeste 5 Sudoeste 0 -- -- 98
2020-03-31 03:00:00 -2.9 2 Sudoeste 10 Norte 0 -- -- 98
2020-03-31 02:00:00 -3 5 Norte 8 Norte 0 -- -- 98
2020-03-31 01:00:00 -2.9 4 Noroeste 11 Norte 0 -- -- 97
2020-03-31 00:00:00 -2.8 7 Norte 14 Noroeste 0 -- -- 98
2020-03-30 23:00:00 -2.8 9 Norte 14 Norte 0 -- -- 98
2020-03-30 22:00:00 -3 9 Norte 15 Norte 0 -- -- 97
2020-03-30 21:00:00 -2.9 8 Norte 17 Norte 0 -- -- 97
2020-03-30 20:00:00 -2.6 12 Norte 19 Norte 0 -- -- 95
2020-03-30 19:00:00 -2.3 15 Norte 23 Norte 0 -- -- 95
2020-03-30 18:00:00 -2.2 17 Norte 26 Norte 0 -- -- 92
2020-03-30 17:00:00 -1.6 13 Norte 25 Norte 0 -- -- 91
2020-03-30 16:00:00 -1.5 14 Norte 23 Norte 0 -- -- 92
2020-03-30 15:00:00 -1.4 14 Norte 22 Norte 0 -- -- 92
2020-03-30 14:00:00 -1.7 12 Norte 23 Norte 0 -- -- 94
2020-03-30 13:00:00 -1.6 16 Norte 24 Norte 0 -- -- 91
2020-03-30 12:00:00 -1.9 17 Norte 26 Norte 0 -- -- 94
2020-03-30 11:00:00 -0.9 15 Norte 27 Norte 0 -- -- 94
2020-03-30 10:00:00 0.2 12 Norte 18 Nordeste 0 -- -- 99
2020-03-30 09:00:00 0.1 13 Norte 19 Norte 0 -- -- 100
2020-03-30 08:00:00 0.7 13 Norte 21 Norte 0 -- -- 96
2020-03-30 07:00:00 0.6 11 Norte 18 Norte 0 -- -- 95
2020-03-30 06:00:00 0.6 12 Norte 15 Norte 0 -- -- 94
2020-03-30 05:00:00 0.4 8 Norte 12 Norte 0 -- -- 95
2020-03-30 04:00:00 0.3 6 Norte 10 Norte 0 -- -- 94
2020-03-30 03:00:00 0.9 6 Norte 13 Norte 0 -- -- 92
2020-03-30 02:00:00 1.3 9 Norte 14 Norte 0 -- -- 91
2020-03-30 01:00:00 1.1 6 Norte 10 Norte 0 -- -- 91
2020-03-30 00:00:00 1.7 7 Norte 15 Nordeste 0 -- -- 90
2020-03-29 23:00:00 2.8 8 Norte 22 Nordeste 0 -- -- 85
2020-03-29 22:00:00 4.2 14 Norte 23 Norte 0 -- -- 80
2020-03-29 21:00:00 6.3 12 Norte 22 Norte 0 -- -- 63
2020-03-29 20:00:00 9.5 17 Norte 29 Norte 0 -- -- 48
2020-03-29 19:00:00 12.4 13 Noroeste 30 Noroeste 0 -- -- 38
2020-03-29 18:00:00 12.5 15 Noroeste 29 Noroeste 0 -- -- 37
2020-03-29 17:00:00 12.7 15 Noroeste 31 Noroeste 0 -- -- 41
2020-03-29 16:00:00 12.5 19 Noroeste 30 Noroeste 0 -- -- 43
2020-03-29 15:00:00 11.5 18 Oeste 31 Oeste 0 -- -- 43
2020-03-29 14:00:00 11.2 12 Noroeste 26 Oeste 0 -- -- 49
2020-03-29 13:00:00 10.4 15 Noroeste 25 Oeste 0 -- -- 49
2020-03-29 12:00:00 9.6 16 Noroeste 25 Oeste 0 -- -- 48
2020-03-29 11:00:00 8.3 3 Noroeste 8 Nordeste 0 -- -- 54
2020-03-29 10:00:00 4.4 2 Este 5 Nordeste 0 -- -- 79
2020-03-29 09:00:00 -0.2 3 Nordeste 6 Este 0 -- -- 89
2020-03-29 08:00:00 -2.2 4 Este 9 Este 0 -- -- 94
2020-03-29 07:00:00 -2.2 7 Este 9 Este 0 -- -- 95
2020-03-29 06:00:00 -1.5 5 Nordeste 10 Sudeste 0 -- -- 92
2020-03-29 05:00:00 -1.7 2 Este 6 Este 0 -- -- 94
2020-03-29 03:00:00 -1.2 4 Nordeste 8 Este 0 -- -- 94
2020-03-29 01:00:00 -0.8 2 Nordeste 13 Este 0 -- -- 92
2020-03-29 00:00:00 0.1 11 Este 13 Este 0 -- -- 92
2020-03-28 23:00:00 0.7 6 Este 9 Este 0 -- -- 89
2020-03-28 22:00:00 1.8 2 Sur 8 Este 0 -- -- 86
2020-03-28 21:00:00 2.7 6 Nordeste 12 Nordeste 0 -- -- 82
2020-03-28 20:00:00 4.8 4 Nordeste 14 Norte 0 -- -- 75
2020-03-28 19:00:00 6.9 9 Norte 15 Noroeste 0 -- -- 63
2020-03-28 18:00:00 8.1 8 Norte 15 Noroeste 0 -- -- 54
2020-03-28 17:00:00 8.8 8 Noroeste 15 Noroeste 0 -- -- 50
2020-03-28 16:00:00 8.5 7 Este 20 Este 0 -- -- 56
2020-03-28 15:00:00 7.6 8 Nordeste 21 Este 0 -- -- 58
2020-03-28 14:00:00 7.2 9 Nordeste 29 Nordeste 0 -- -- 60
2020-03-28 13:00:00 6.7 18 Nordeste 28 Nordeste 0 -- -- 63
2020-03-28 12:00:00 6.9 16 Este 28 Este 0 -- -- 65
2020-03-28 11:00:00 5.5 12 Nordeste 30 Nordeste 0 -- -- 71
2020-03-28 10:00:00 3.9 15 Nordeste 24 Nordeste 0 -- -- 80
2020-03-28 09:00:00 2.1 10 Norte 20 Norte 0 -- -- 88
2020-03-28 08:00:00 0.4 10 Norte 16 Norte 0 -- -- 94
2020-03-28 07:00:00 -0.6 6 Norte 9 Norte 0 -- -- 96
2020-03-28 06:00:00 -0.7 3 Oeste 6 Nordeste 0 -- -- 96
2020-03-28 05:00:00 -1.2 3 Este 7 Nordeste 0 -- -- 96
2020-03-28 04:00:00 -1.9 4 Este 6 Este 0 -- -- 96
2020-03-28 03:00:00 -3 0 Calma 3 Noroeste 0 -- -- 97
2020-03-28 02:00:00 -3.1 3 Este 8 Este 0 -- -- 95
2020-03-28 01:00:00 -2.6 5 Este 8 Sudeste 0 -- -- 95
2020-03-28 00:00:00 -2.2 3 Este 5 Este 0 -- -- 95
2020-03-27 23:00:00 -1.7 2 Nordeste 4 Sudeste 0 -- -- 94
2020-03-27 22:00:00 -1 3 Este 7 Sudeste 0 -- -- 93
2020-03-27 21:00:00 0.3 6 Sudeste 14 Sur 0 -- -- 93
2020-03-27 20:00:00 1.2 11 Sur 21 Sur 0 -- -- 91
2020-03-27 19:00:00 2.7 13 Sur 21 Sur 0 -- -- 86
2020-03-27 18:00:00 3.7 12 Sur 22 Sur 0 -- -- 79
2020-03-27 17:00:00 5.6 13 Sur 25 Sur 0 -- -- 71
2020-03-27 16:00:00 5.9 12 Sur 26 Sur 0 -- -- 58
2020-03-27 15:00:00 5.7 13 Sur 22 Sur 0 -- -- 57
2020-03-27 14:00:00 5.1 13 Sudeste 26 Sudeste 0 -- -- 56
2020-03-27 13:00:00 4 6 Sudeste 23 Este 0 -- -- 63
2020-03-27 12:00:00 4.2 13 Sudeste 25 Nordeste 0 -- -- 63
2020-03-27 11:00:00 2.1 17 Este 30 Este 0 -- -- 70
2020-03-27 10:00:00 0.9 4 Norte 11 Norte 0 -- -- 79
2020-03-27 09:00:00 -0.1 5 Norte 8 Norte 0 -- -- 80
2020-03-27 08:00:00 -1.5 2 Nordeste 12 Este 0 -- -- 85
2020-03-27 07:00:00 -3.1 8 Este 15 Sur 0 -- -- 98
2020-03-27 06:00:00 -3.4 8 Sudeste 16 Sur 0 -- -- 99
2020-03-27 05:00:00 -4.5 6 Sudoeste 12 Sur 0 -- -- 94
2020-03-27 04:00:00 -3.9 5 Este 14 Este 0 -- -- 87
2020-03-27 03:00:00 -3.5 3 Sudoeste 6 Norte 0.2 -- -- 84
2020-03-27 02:00:00 -3.8 2 Nordeste 10 Norte 0 -- -- 86
2020-03-27 01:00:00 -3.2 6 Norte 14 Nordeste 0 -- -- 85
2020-03-27 00:00:00 -2.5 4 Oeste 17 Este 0 -- -- 82
2020-03-26 23:00:00 -2 12 Este 17 Este 0 -- -- 82
2020-03-26 22:00:00 -1.1 8 Norte 18 Noroeste 0 -- -- 78
2020-03-26 21:00:00 -0.9 8 Norte 13 Norte 0 -- -- 78
2020-03-26 20:00:00 0.6 9 Norte 37 Norte 0 -- -- 69
2020-03-26 19:00:00 2.2 17 Norte 39 Norte 0 -- -- 64
2020-03-26 18:00:00 2.5 21 Norte 42 Noroeste 0 -- -- 65
2020-03-26 17:00:00 2.6 21 Noroeste 44 Noroeste 0 -- -- 63
2020-03-26 16:00:00 1.9 25 Norte 59 Noroeste 0.2 -- -- 77
2020-03-26 15:00:00 1.1 25 Noroeste 53 Noroeste 0 -- -- 84
2020-03-26 14:00:00 2.1 33 Noroeste 59 Noroeste 0 -- -- 71
2020-03-26 13:00:00 2.5 35 Noroeste 63 Noroeste 0 -- -- 74
2020-03-26 12:00:00 1.1 31 Noroeste 63 Noroeste 0.2 -- -- 87
2020-03-26 11:00:00 0.5 31 Noroeste 49 Noroeste 0 -- -- 85
2020-03-26 10:00:00 0.9 31 Noroeste 50 Noroeste 0 -- -- 84
2020-03-26 09:00:00 0.9 33 Noroeste 50 Noroeste 0 -- -- 85
2020-03-26 08:00:00 -0.2 27 Noroeste 50 Noroeste 0 -- -- 90
2020-03-26 07:00:00 -0.9 31 Noroeste 51 Noroeste 0 -- -- 90
2020-03-26 06:00:00 -0.5 23 Noroeste 33 Noroeste 0 -- -- 92
2020-03-26 05:00:00 -1.3 10 Nordeste 15 Nordeste 0 -- -- 100
2020-03-26 04:00:00 -0.7 6 Norte 12 Norte 0 -- -- 97
2020-03-26 03:00:00 -1.4 6 Nordeste 10 Nordeste 0 -- -- 97
2020-03-26 02:00:00 -1.7 5 Este 9 Este 0 -- -- 99
2020-03-26 01:00:00 -1.3 6 Este 9 Este 0 -- -- 99
2020-03-26 00:00:00 -0.2 3 Sudeste 9 Este 0 -- -- 99
2020-03-25 23:00:00 0.2 5 Sudeste 13 Sur 0 -- -- 98
2020-03-25 22:00:00 0.7 10 Sur 17 Sudoeste 0 -- -- 98
2020-03-25 21:00:00 0.5 6 Sudeste 18 Sur 0 -- -- 98
2020-03-25 20:00:00 1.1 15 Sur 22 Sur 0 -- -- 97
2020-03-25 19:00:00 2.9 17 Sur 25 Sur 0 -- -- 90
2020-03-25 18:00:00 6.5 14 Norte 26 Noroeste 0 -- -- 59
2020-03-25 17:00:00 5.7 18 Norte 31 Noroeste 0 -- -- 56
2020-03-25 16:00:00 5.7 18 Noroeste 36 Noroeste 0 -- -- 57
2020-03-25 15:00:00 5.6 19 Norte 37 Norte 0 -- -- 73
2020-03-25 14:00:00 5.4 21 Norte 32 Norte 0.6 -- -- 79
2020-03-25 13:00:00 3.6 22 Norte 34 Noroeste 0 -- -- 87
2020-03-25 12:00:00 4.2 13 Oeste 23 Oeste 0.6 -- -- 89
2020-03-25 11:00:00 2 8 Sur 15 Sur 1.2 -- -- 98
2020-03-25 10:00:00 0.4 8 Sur 13 Sur 0.2 -- -- 100
2020-03-25 09:00:00 -0.1 8 Sur 17 Sur 0 -- -- 100
2020-03-25 08:00:00 -0.3 12 Sur 19 Sur 0 -- -- 100
2020-03-25 07:00:00 0.1 10 Sur 14 Sur 0 -- -- 100
2020-03-25 06:00:00 0.4 10 Sur 16 Sur 0.2 -- -- 99
2020-03-25 05:00:00 1.1 4 Sudoeste 7 Sudoeste 0.4 -- -- 98
2020-03-25 04:00:00 1.2 5 Sudoeste 9 Sudoeste 0.2 -- -- 99
2020-03-25 03:00:00 1.6 5 Sur 9 Sur 0 -- -- 97
2020-03-25 02:00:00 1.5 6 Sur 10 Sur 0 -- -- 97
2020-03-25 01:00:00 1.2 5 Sur 11 Sur 0 -- -- 98
2020-03-25 00:00:00 0.9 2 Oeste 7 Este 0 -- -- 92
2020-03-24 23:00:00 1 5 Sudeste 17 Sur 0 -- -- 96
2020-03-24 22:00:00 1 8 Este 12 Este 0 -- -- 85
2020-03-24 21:00:00 2.5 8 Sudeste 13 Nordeste 0 -- -- 78
2020-03-24 20:00:00 3.7 6 Nordeste 18 Este 0 -- -- 80
2020-03-24 19:00:00 3.9 9 Nordeste 23 Nordeste 0 -- -- 80
2020-03-24 18:00:00 3.8 15 Nordeste 25 Nordeste 0 -- -- 87
2020-03-24 17:00:00 5.2 17 Nordeste 24 Nordeste 0 -- -- 80
2020-03-24 16:00:00 6.3 17 Este 24 Nordeste 0 -- -- 75
2020-03-24 15:00:00 6.3 22 Nordeste 33 Este 0.2 -- -- 76
2020-03-24 14:00:00 6.4 22 Nordeste 32 Nordeste 0 -- -- 73
2020-03-24 13:00:00 6 25 Este 35 Este 0 -- -- 78
2020-03-24 12:00:00 4.6 20 Este 35 Este 0 -- -- 84
2020-03-24 11:00:00 4.7 23 Este 34 Este 0 -- -- 84
2020-03-24 10:00:00 5.3 13 Nordeste 32 Nordeste 0 -- -- 83
2020-03-24 09:00:00 4.8 17 Nordeste 23 Nordeste 0 -- -- 85
2020-03-24 08:00:00 4.4 12 Nordeste 30 Nordeste 0 -- -- 87
2020-03-24 07:00:00 4 8 Norte 11 Norte 0 -- -- 90
2020-03-24 06:00:00 4.4 10 Este 26 Este 0 -- -- 89
2020-03-24 05:00:00 4.6 15 Nordeste 28 Este 0 -- -- 85
2020-03-24 04:00:00 4.8 16 Este 25 Este 0 -- -- 84
2020-03-24 03:00:00 4.7 15 Este 25 Este 0 -- -- 86
2020-03-24 02:00:00 4.5 11 Nordeste 19 Nordeste 0 -- -- 87
2020-03-24 01:00:00 4.2 5 Nordeste 22 Este 0 -- -- 90
2020-03-24 00:00:00 4.7 13 Este 24 Este 0 -- -- 89
2020-03-23 23:00:00 4.5 0 Calma 15 Sudeste 0 -- -- 89
2020-03-23 22:00:00 4.4 0 Calma 8 Noroeste 0 -- -- 88
2020-03-23 21:00:00 4.4 3 Sudoeste 21 Este 0 -- -- 88
2020-03-23 20:00:00 5 14 Este 23 Este 0 -- -- 89
2020-03-23 19:00:00 5.7 15 Sudeste 24 Este 0 -- -- 84
2020-03-23 18:00:00 6.1 13 Este 21 Este 0 -- -- 88
2020-03-23 17:00:00 7.2 12 Sur 24 Este 0 -- -- 85
2020-03-23 16:00:00 6.6 16 Sudeste 30 Sudeste 0 -- -- 83
2020-03-23 15:00:00 6.9 18 Sudeste 31 Sudeste 0.4 -- -- 87
2020-03-23 14:00:00 6.4 18 Sudeste 35 Sudeste 0.4 -- -- 92
2020-03-23 13:00:00 5.8 19 Sudeste 28 Sudeste 0.2 -- -- 91
2020-03-23 12:00:00 5.7 10 Sudeste 17 Sur 0.6 -- -- 95
2020-03-23 11:00:00 6 11 Sur 28 Este 0 -- -- 89
2020-03-23 10:00:00 5.5 8 Sudeste 23 Este 0 -- -- 90
2020-03-23 09:00:00 4.8 2 Sudeste 4 Sudeste 0 -- -- 93
2020-03-23 08:00:00 4 2 Noroeste 7 Sur 0 -- -- 96
2020-03-23 07:00:00 3.4 0 Calma 5 Sur 0 -- -- 97
2020-03-23 06:00:00 3.4 0 Calma 8 Nordeste 0 -- -- 95
2020-03-23 05:00:00 3.2 0 Calma 6 Norte 0.4 -- -- 97
2020-03-23 04:00:00 3.2 0 Calma 5 Este 0.2 -- -- 97
2020-03-23 03:00:00 3.1 4 Este 9 Nordeste 0 -- -- 96
2020-03-23 02:00:00 3.2 4 Este 12 Sudeste 0 -- -- 93
2020-03-23 01:00:00 3.9 9 Sudeste 14 Este 0 -- -- 92
2020-03-23 00:00:00 3.9 8 Nordeste 14 Este 0 -- -- 91
2020-03-22 23:00:00 3.4 8 Este 12 Este 0 -- -- 93
2020-03-22 22:00:00 3.8 7 Sudeste 10 Este 0 -- -- 93
2020-03-22 21:00:00 4.3 5 Sudeste 24 Este 0 -- -- 91
2020-03-22 20:00:00 4.5 14 Sudeste 19 Sudeste 0 -- -- 91
2020-03-22 19:00:00 5.1 11 Sudeste 18 Sudeste 0 -- -- 95
2020-03-22 18:00:00 5.6 13 Sur 21 Sur 0 -- -- 94
2020-03-22 17:00:00 5.5 9 Sudoeste 18 Sur 0.6 -- -- 94
2020-03-22 16:00:00 5.7 10 Sur 18 Sur 0.2 -- -- 92
2020-03-22 15:00:00 5.8 5 Sudoeste 10 Norte 0 -- -- 89
2020-03-22 14:00:00 5.6 6 Norte 10 Noroeste 0 -- -- 88
2020-03-22 13:00:00 5.5 2 Noroeste 8 Nordeste 0 -- -- 88
2020-03-22 12:00:00 4.4 5 Norte 8 Norte 0.8 -- -- 92
2020-03-22 11:00:00 3.8 2 Sur 12 Nordeste 0.6 -- -- 86
2020-03-22 10:00:00 4 6 Nordeste 16 Nordeste 0 -- -- 84
2020-03-22 09:00:00 4.1 6 Este 12 Este 0 -- -- 82
2020-03-22 08:00:00 3.5 8 Este 15 Nordeste 0 -- -- 88
2020-03-22 07:00:00 3.9 8 Nordeste 12 Nordeste 0.2 -- -- 97
2020-03-22 06:00:00 3.9 4 Sur 5 Sudeste 0 -- -- 99
2020-03-22 05:00:00 3.8 0 Calma 5 Sur 0 -- -- 99
2020-03-22 04:00:00 3.8 3 Sur 8 Sudoeste 0 -- -- 99
2020-03-22 03:00:00 3.7 7 Sudoeste 13 Sudoeste 0 -- -- 98
2020-03-22 02:00:00 4.3 4 Sur 10 Sur 0.2 -- -- 99
2020-03-22 01:00:00 4.3 4 Sur 17 Sudeste 0 -- -- 100
2020-03-22 00:00:00 4.3 11 Sudeste 17 Sudeste 0 -- -- 100
2020-03-21 23:00:00 4.4 6 Sudeste 20 Sudeste 0 -- -- 100
2020-03-21 22:00:00 4.5 10 Sudeste 19 Sur 0 -- -- 100
2020-03-21 21:00:00 4.8 12 Sudeste 21 Sudeste 0 -- -- 99
2020-03-21 20:00:00 5.2 10 Sur 19 Sur 0 -- -- 96
2020-03-21 19:00:00 5.9 14 Sur 18 Sur 0 -- -- 90
2020-03-21 18:00:00 6.3 11 Sur 18 Sur 0 -- -- 88
2020-03-21 17:00:00 7.1 11 Sur 22 Sur 0 -- -- 83
2020-03-21 16:00:00 7.5 15 Sur 20 Sur 0 -- -- 81
2020-03-21 15:00:00 8 9 Sudeste 13 Sudeste 0 -- -- 76
2020-03-21 14:00:00 8.5 7 Este 16 Sudeste 0 -- -- 72
2020-03-21 13:00:00 7.1 4 Sudeste 15 Sur 0 -- -- 73
2020-03-21 12:00:00 6.2 9 Sur 24 Sudeste 0 -- -- 81
2020-03-21 11:00:00 5 15 Sudeste 26 Sudeste 0 -- -- 85
2020-03-21 10:00:00 5 15 Sur 22 Sudeste 0 -- -- 82
2020-03-21 09:00:00 2.5 3 Este 6 Norte 0 -- -- 100
2020-03-21 08:00:00 0 2 Nordeste 5 Sur 0 -- -- 100
2020-03-21 07:00:00 -0.5 7 Sudeste 9 Sur 0 -- -- 100
2020-03-21 06:00:00 -0.3 3 Sudoeste 8 Sur 0 -- -- 100
2020-03-21 05:00:00 0.7 3 Oeste 14 Sudeste 0 -- -- 95
2020-03-21 04:00:00 1.6 9 Sudeste 20 Sur 0 -- -- 92
2020-03-21 03:00:00 2.3 17 Sur 29 Sur 0 -- -- 95
2020-03-21 02:00:00 2.9 16 Sur 28 Sur 0 -- -- 96
2020-03-21 01:00:00 3.5 17 Sur 26 Sudeste 0 -- -- 93
2020-03-21 00:00:00 4.2 12 Sur 20 Sur 0 -- -- 95
2020-03-20 23:00:00 4.7 11 Sudeste 17 Sudeste 0 -- -- 99
2020-03-20 22:00:00 5 11 Sudeste 15 Sudeste 0 -- -- 97
2020-03-20 21:00:00 5.1 7 Sur 14 Sur 0 -- -- 96
2020-03-20 20:00:00 5 8 Sur 21 Sur 0 -- -- 95
2020-03-20 19:00:00 5.7 12 Sur 21 Sur 0 -- -- 92
2020-03-20 18:00:00 6.3 13 Sudeste 26 Sur 0 -- -- 88
2020-03-20 17:00:00 7.2 19 Sur 27 Sur 0 -- -- 81
2020-03-20 16:00:00 8.3 20 Sudeste 33 Sur 0 -- -- 76
2020-03-20 15:00:00 9.4 21 Sudeste 38 Sur 0 -- -- 70
2020-03-20 14:00:00 9.7 19 Sur 34 Sudeste 0 -- -- 71
2020-03-20 13:00:00 7.8 23 Sudeste 34 Sur 0 -- -- 73
2020-03-20 12:00:00 7.2 23 Sur 34 Sur 0 -- -- 79
2020-03-20 11:00:00 6.3 13 Sur 27 Sudeste 0 -- -- 76
2020-03-20 10:00:00 4.2 16 Sudeste 26 Sur 0 -- -- 84
2020-03-20 09:00:00 3.7 13 Sudeste 24 Sudeste 0 -- -- 84
2020-03-20 08:00:00 2.8 15 Sur 24 Sur 0 -- -- 89
2020-03-20 07:00:00 2.7 8 Sudeste 19 Sudeste 0 -- -- 92
2020-03-20 06:00:00 2.6 10 Sudeste 20 Sudeste 0 -- -- 92
2020-03-20 05:00:00 2.4 9 Sudeste 22 Sudeste 0 -- -- 92
2020-03-20 04:00:00 2.5 16 Sudeste 28 Sudeste 0 -- -- 93
2020-03-20 03:00:00 2.3 22 Sudeste 29 Sudeste 0 -- -- 94
2020-03-20 02:00:00 2.5 17 Sur 31 Sur 0 -- -- 92
2020-03-20 01:00:00 3.1 23 Sur 33 Sur 0 -- -- 92
2020-03-20 00:00:00 3.3 22 Sudeste 31 Sur 0 -- -- 91
2020-03-19 23:00:00 3.8 17 Sudeste 25 Sudeste 0 -- -- 93
2020-03-19 22:00:00 4.6 10 Sudeste 19 Sur 0 -- -- 94
2020-03-19 21:00:00 5.3 9 Sur 17 Sudeste 0 -- -- 91
2020-03-19 20:00:00 5.5 12 Sur 26 Sur 0 -- -- 89
2020-03-19 19:00:00 6.6 21 Sur 30 Sudeste 0 -- -- 83
2020-03-19 18:00:00 8.5 17 Sudeste 31 Sur 0 -- -- 76
2020-03-19 17:00:00 9.3 18 Sur 30 Sudeste 0 -- -- 71
2020-03-19 16:00:00 10.5 19 Sudeste 30 Sudeste 0 -- -- 68
2020-03-19 15:00:00 11.4 17 Sur 28 Sudeste 0 -- -- 70
2020-03-19 14:00:00 10.9 17 Sudeste 29 Sudeste 0 -- -- 69
2020-03-19 13:00:00 10 17 Sur 29 Sur 0 -- -- 67
2020-03-19 12:00:00 8.9 18 Sur 30 Sur 0 -- -- 71
2020-03-19 11:00:00 7.9 16 Sur 26 Sur 0 -- -- 69
2020-03-19 10:00:00 5.9 10 Sur 15 Sur 0 -- -- 68
2020-03-19 09:00:00 2 2 Oeste 4 Nordeste 0 -- -- 80
2020-03-19 08:00:00 0.3 2 Sudeste 5 Este 0 -- -- 90
2020-03-19 07:00:00 0.2 0 Calma 6 Sudeste 0 -- -- 89
2020-03-19 06:00:00 0.5 4 Este 5 Este 0 -- -- 88
2020-03-19 05:00:00 0.3 3 Oeste 7 Este 0 -- -- 91
2020-03-19 04:00:00 0.5 0 Calma 6 Este 0 -- -- 88
2020-03-19 03:00:00 0.7 4 Este 6 Nordeste 0 -- -- 88
2020-03-19 02:00:00 0.9 3 Nordeste 5 Sudoeste 0 -- -- 90
2020-03-19 01:00:00 1.1 3 Este 10 Este 0 -- -- 88
2020-03-19 00:00:00 2 6 Este 9 Este 0 -- -- 90
2020-03-18 23:00:00 3 6 Este 9 Este 0 -- -- 94
2020-03-18 22:00:00 4.3 4 Este 10 Sur 0 -- -- 92
2020-03-18 21:00:00 5.2 9 Sur 15 Sur 0 -- -- 87
2020-03-18 20:00:00 6.2 12 Sur 15 Sur 0 -- -- 89
2020-03-18 19:00:00 7.4 9 Sur 15 Sur 0 -- -- 88
2020-03-18 18:00:00 8.7 11 Sur 18 Sur 0 -- -- 85
2020-03-18 17:00:00 9.3 15 Sur 21 Sur 0 -- -- 82
2020-03-18 16:00:00 9.8 12 Sur 17 Sur 0 -- -- 80
2020-03-18 15:00:00 9.9 11 Sur 18 Sur 0 -- -- 78
2020-03-18 14:00:00 9.5 13 Sur 21 Sur 0 -- -- 79
2020-03-18 13:00:00 9.4 15 Sur 22 Sur 0 -- -- 80
2020-03-18 12:00:00 9.4 2 Oeste 7 Sudoeste 0 -- -- 76
2020-03-18 11:00:00 7.8 5 Sudoeste 8 Sudoeste 0.2 -- -- 78
2020-03-18 10:00:00 6.4 0 Calma 5 Este 0 -- -- 83
2020-03-18 09:00:00 3.6 4 Nordeste 10 Sudeste 0 -- -- 96
2020-03-18 08:00:00 2.5 7 Este 9 Este 0 -- -- 97
2020-03-18 07:00:00 2.8 0 Calma 9 Sudoeste 0 -- -- 95
2020-03-18 06:00:00 3.2 7 Sudoeste 15 Sur 0 -- -- 94
2020-03-18 05:00:00 3.5 11 Sur 14 Sur 0 -- -- 94
2020-03-18 04:00:00 3.1 3 Sudeste 9 Sudeste 0 -- -- 93
2020-03-18 03:00:00 3.5 5 Norte 8 Sudeste 0 -- -- 93
2020-03-18 02:00:00 3.5 4 Noroeste 14 Este 0 -- -- 95
2020-03-18 01:00:00 3.9 4 Sudoeste 13 Sur 0 -- -- 96
2020-03-18 00:00:00 4.6 11 Sur 24 Este 0 -- -- 96
2020-03-17 23:00:00 5.7 8 Este 14 Este 0 -- -- 85
2020-03-17 22:00:00 6.2 10 Sudeste 19 Sudeste 0 -- -- 81
2020-03-17 21:00:00 6.7 8 Sudeste 18 Este 0 -- -- 87
2020-03-17 20:00:00 7.2 10 Este 25 Este 0 -- -- 84
2020-03-17 19:00:00 8.1 10 Sudeste 28 Sudeste 0 -- -- 83
2020-03-17 18:00:00 8.9 18 Sudeste 30 Este 0 -- -- 75
2020-03-17 17:00:00 9.5 13 Sudeste 29 Este 0 -- -- 73
2020-03-17 16:00:00 9.1 18 Este 39 Este 0 -- -- 78
2020-03-17 15:00:00 9.6 24 Este 48 Este 0 -- -- 86
2020-03-17 14:00:00 8.9 18 Este 25 Este 0.2 -- -- 90
2020-03-17 13:00:00 7.3 5 Norte 13 Este 1.4 -- -- 93
2020-03-17 12:00:00 6.8 9 Sudeste 41 Este 2.2 -- -- 93
2020-03-17 11:00:00 7.8 17 Sudeste 39 Este 0.6 -- -- 88
2020-03-17 10:00:00 7.9 19 Este 33 Este 0.4 -- -- 93
2020-03-17 09:00:00 7 17 Este 28 Este 0.2 -- -- 96
2020-03-17 08:00:00 5.5 4 Oeste 22 Sur 1.2 -- -- 98
2020-03-17 07:00:00 5.6 15 Sur 34 Nordeste 2.2 -- -- 97
2020-03-17 06:00:00 5.8 8 Nordeste 14 Nordeste 1 -- -- 98
2020-03-17 05:00:00 5.8 5 Nordeste 20 Este 1.6 -- -- 96
2020-03-17 04:00:00 5.9 2 Sudeste 6 Este 2.2 -- -- 98
2020-03-17 03:00:00 6.1 4 Sudeste 14 Este 2.2 -- -- 94
2020-03-17 02:00:00 6.3 14 Este 26 Este 4.4 -- -- 94
2020-03-17 01:00:00 6.8 14 Este 32 Este 1.2 -- -- 95
2020-03-17 00:00:00 6.8 21 Este 40 Este 0.2 -- -- 90
2020-03-16 23:00:00 6.6 15 Este 35 Este 0 -- -- 90
2020-03-16 22:00:00 6.6 18 Este 35 Sudeste 0 -- -- 92
2020-03-16 21:00:00 5.9 21 Este 38 Este 0 -- -- 97
2020-03-16 20:00:00 2.8 2 Noroeste 8 Sudoeste 0 -- -- 99
2020-03-16 19:00:00 2.6 6 Sudoeste 11 Nordeste 0.4 -- -- 96
2020-03-16 18:00:00 1.7 7 Nordeste 17 Este 0.6 -- -- 97
2020-03-16 17:00:00 0.7 8 Sudoeste 41 Sudoeste 1 -- -- 96
2020-03-16 16:00:00 2 15 Sudoeste 31 Sudoeste 0.6 -- -- 96
2020-03-16 15:00:00 1.9 5 Norte 29 Sudoeste 2.2 -- -- 97
2020-03-16 14:00:00 2.5 6 Norte 13 Nordeste 1.8 -- -- 97
2020-03-16 13:00:00 1.9 4 Nordeste 10 Este 2.4 -- -- 97
2020-03-16 12:00:00 1.2 5 Este 20 Oeste 0.8 -- -- 96
2020-03-16 11:00:00 1.2 18 Sudoeste 54 Este 1 -- -- 94
2020-03-16 10:00:00 7.4 41 Este 60 Este 0 -- -- 87
2020-03-16 09:00:00 6.2 25 Sudeste 43 Sudeste 0 -- -- 89
2020-03-16 08:00:00 5.6 23 Sudeste 39 Este 0 -- -- 89
2020-03-16 07:00:00 5.2 23 Sudeste 42 Sudeste 0 -- -- 94
2020-03-16 06:00:00 5 26 Sudeste 42 Sudeste 0.4 -- -- 98
2020-03-16 05:00:00 4.1 16 Sudeste 25 Sur 1.2 -- -- 100
2020-03-16 04:00:00 3.7 15 Sudeste 24 Sudeste 3.6 -- -- 100
2020-03-16 03:00:00 3.3 17 Sudeste 30 Sudeste 1 -- -- 98
2020-03-16 02:00:00 3.4 18 Sur 31 Sur 0.2 -- -- 95
2020-03-16 01:00:00 4.4 21 Sudeste 30 Sudeste 0.2 -- -- 94
2020-03-16 00:00:00 5.2 18 Sur 31 Sudeste 0.6 -- -- 96
2020-03-15 23:00:00 5.7 23 Sudeste 36 Sudeste 1.6 -- -- 92
2020-03-15 22:00:00 5.7 14 Sur 24 Sur 5 -- -- 95
2020-03-15 21:00:00 6.4 19 Sudoeste 29 Sur 4 -- -- 97
2020-03-15 20:00:00 7 20 Sur 32 Sur 0 -- -- 97
2020-03-15 19:00:00 8.4 21 Sur 37 Sur 0 -- -- 90
2020-03-15 18:00:00 9.8 18 Sur 33 Sur 0 -- -- 82
2020-03-15 17:00:00 11 22 Sur 33 Sur 0 -- -- 74
2020-03-15 16:00:00 12.2 22 Sudeste 34 Sur 0 -- -- 66
2020-03-15 15:00:00 13.3 19 Sudeste 39 Sudeste 0 -- -- 64
2020-03-15 14:00:00 11.8 20 Sudeste 32 Sudeste 0 -- -- 69
2020-03-15 13:00:00 13.3 23 Sur 35 Sudeste 0 -- -- 64
2020-03-15 12:00:00 11.3 24 Sudeste 33 Sudeste 0 -- -- 75
2020-03-15 11:00:00 11.6 18 Sudeste 28 Sudeste 0 -- -- 73
2020-03-15 10:00:00 10.2 18 Sur 25 Sudeste 0 -- -- 73
2020-03-15 09:00:00 8.2 15 Sur 21 Sur 0 -- -- 71
2020-03-15 08:00:00 6.4 9 Sur 17 Sudeste 0 -- -- 71
2020-03-15 07:00:00 5.9 12 Sur 17 Sur 0 -- -- 69
2020-03-15 06:00:00 5.9 9 Sur 15 Sur 0 -- -- 69
2020-03-15 05:00:00 5.7 10 Sudeste 12 Sur 0 -- -- 85
2020-03-15 04:00:00 5.6 5 Sur 11 Sur 0 -- -- 96
2020-03-15 03:00:00 6.1 9 Sur 15 Sur 0 -- -- 99
2020-03-15 02:00:00 6.3 10 Sur 14 Sur 0 -- -- 99
2020-03-15 01:00:00 6.8 8 Sur 12 Sur 0 -- -- 98
2020-03-15 00:00:00 7.1 6 Sudeste 10 Sur 0 -- -- 98
2020-03-14 23:00:00 7.5 2 Sur 10 Sur 0 -- -- 95
2020-03-14 22:00:00 7.2 6 Sur 13 Sur 0 -- -- 95
2020-03-14 21:00:00 7.8 9 Sur 19 Sur 0 -- -- 93
2020-03-14 20:00:00 8.5 10 Sur 21 Sur 0 -- -- 88
2020-03-14 19:00:00 10.6 13 Sur 27 Sur 0 -- -- 79
2020-03-14 18:00:00 12.7 17 Sur 24 Sur 0 -- -- 70
2020-03-14 17:00:00 14.8 19 Sur 26 Sur 0 -- -- 61
2020-03-14 16:00:00 16.9 12 Noroeste 25 Noroeste 0 -- -- 35
2020-03-14 15:00:00 16.5 15 Oeste 25 Noroeste 0 -- -- 40
2020-03-14 14:00:00 14.9 9 Noroeste 18 Oeste 0 -- -- 50
2020-03-14 13:00:00 15.2 6 Noroeste 18 Noroeste 0 -- -- 55
2020-03-14 12:00:00 14.4 7 Norte 16 Norte 0 -- -- 58
2020-03-14 11:00:00 12.6 6 Norte 17 Nordeste 0 -- -- 68
2020-03-14 10:00:00 10.6 9 Norte 13 Norte 0 -- -- 77
2020-03-14 09:00:00 6.6 3 Nordeste 7 Nordeste 0 -- -- 92
2020-03-14 08:00:00 2.6 4 Nordeste 8 Nordeste 0 -- -- 97
2020-03-14 07:00:00 1.7 0 Calma 9 Este 0 -- -- 98
2020-03-14 06:00:00 2.2 4 Nordeste 10 Este 0 -- -- 97
2020-03-14 05:00:00 2.6 6 Este 8 Este 0 -- -- 98
2020-03-14 04:00:00 2.8 2 Norte 5 Este 0 -- -- 96
2020-03-14 03:00:00 2.9 0 Calma 5 Sudeste 0 -- -- 97
2020-03-14 02:00:00 3.4 5 Este 8 Este 0 -- -- 98
2020-03-14 01:00:00 4 0 Calma 3 Nordeste 0 -- -- 97
2020-03-14 00:00:00 4.1 3 Este 7 Este 0 -- -- 95
2020-03-13 23:00:00 5 5 Este 9 Este 0 -- -- 94
2020-03-13 22:00:00 6.2 5 Sudoeste 16 Sur 0 -- -- 94
2020-03-13 21:00:00 7.3 12 Sur 18 Sur 0 -- -- 91
2020-03-13 20:00:00 8.4 8 Sur 23 Sur 0 -- -- 85
2020-03-13 19:00:00 9.9 17 Sur 25 Sur 0 -- -- 78
2020-03-13 18:00:00 12.5 15 Sur 27 Sur 0 -- -- 68
2020-03-13 17:00:00 13.2 18 Sur 33 Sur 0 -- -- 63
2020-03-13 16:00:00 13.7 19 Sur 31 Sudeste 0 -- -- 60
2020-03-13 15:00:00 13.8 22 Sudeste 36 Sudeste 0 -- -- 58
2020-03-13 14:00:00 13.6 22 Sur 36 Sudeste 0 -- -- 58
2020-03-13 13:00:00 13.6 21 Sur 33 Sur 0 -- -- 57
2020-03-13 12:00:00 11.9 21 Sur 31 Sudeste 0 -- -- 69
2020-03-13 11:00:00 10.2 15 Sur 28 Sur 0 -- -- 79
2020-03-13 10:00:00 9.8 16 Sur 23 Sur 0 -- -- 81
2020-03-13 09:00:00 8.3 11 Sur 25 Sur 0 -- -- 83
2020-03-13 08:00:00 5.5 4 Sur 12 Sur 0 -- -- 91
2020-03-13 07:00:00 4 3 Oeste 9 Sudeste 0 -- -- 88
2020-03-13 06:00:00 4.3 4 Sudoeste 10 Este 0 -- -- 87
2020-03-13 05:00:00 5.4 0 Calma 2 Norte 0 -- -- 87
2020-03-13 04:00:00 6 0 Calma 5 Sur 0 -- -- 82
2020-03-13 03:00:00 6.5 6 Sudeste 10 Este 0 -- -- 83
2020-03-13 02:00:00 6.7 5 Este 9 Este 0 -- -- 82
2020-03-13 01:00:00 7.9 5 Este 8 Este 0 -- -- 78
2020-03-13 00:00:00 9.6 6 Sudeste 8 Este 0 -- -- 73
2020-03-12 23:00:00 11.2 5 Sudeste 10 Sur 0 -- -- 70
2020-03-12 22:00:00 12.5 8 Sur 20 Sur 0 -- -- 67
2020-03-12 21:00:00 13.5 14 Sur 19 Sur 0 -- -- 65
2020-03-12 20:00:00 14.7 14 Sur 20 Sur 0 -- -- 58
2020-03-12 19:00:00 17.1 13 Sur 22 Sudeste 0 -- -- 45
2020-03-12 18:00:00 19.1 18 Sudeste 28 Sudeste 0 -- -- 37
2020-03-12 17:00:00 20.9 18 Sudeste 31 Sudeste 0 -- -- 33
2020-03-12 16:00:00 21.9 17 Sur 28 Sudeste 0 -- -- 32
2020-03-12 15:00:00 22.5 17 Sur 31 Sur 0 -- -- 29
2020-03-12 14:00:00 22.2 14 Sudeste 26 Sur 0 -- -- 29
2020-03-12 13:00:00 21.7 17 Sur 25 Sur 0 -- -- 27
2020-03-12 12:00:00 21.1 13 Sur 23 Sur 0 -- -- 32
2020-03-12 11:00:00 19.9 13 Sur 20 Sur 0 -- -- 36
2020-03-12 10:00:00 13.2 0 Calma 5 Sudoeste 0 -- -- 64
2020-03-12 09:00:00 9.2 0 Calma 8 Este 0 -- -- 73
2020-03-12 08:00:00 6 7 Este 8 Este 0 -- -- 81
2020-03-12 07:00:00 3.9 0 Calma 11 Este 0 -- -- 85
2020-03-12 06:00:00 4.6 6 Este 9 Este 0 -- -- 85
2020-03-12 05:00:00 5.2 2 Nordeste 5 Este 0 -- -- 83
2020-03-12 04:00:00 5.2 0 Calma 6 Este 0 -- -- 82
2020-03-12 03:00:00 5.8 5 Nordeste 6 Este 0 -- -- 80
2020-03-12 02:00:00 6.3 3 Este 7 Este 0 -- -- 78
2020-03-12 01:00:00 7 5 Este 7 Este 0 -- -- 75
2020-03-12 00:00:00 8 2 Este 6 Sudoeste 0 -- -- 72
2020-03-11 23:00:00 8.3 8 Este 15 Este 0 -- -- 72
2020-03-11 22:00:00 9.1 8 Este 13 Este 0 -- -- 69
2020-03-11 21:00:00 11.6 6 Este 9 Este 0 -- -- 62
2020-03-11 20:00:00 14.4 6 Sur 18 Sur 0 -- -- 54
2020-03-11 19:00:00 18 5 Norte 16 Noroeste 0 -- -- 39
2020-03-11 18:00:00 20.5 9 Noroeste 20 Noroeste 0 -- -- 31
2020-03-11 17:00:00 21.3 10 Noroeste 26 Noroeste 0 -- -- 30
2020-03-11 16:00:00 21.2 16 Noroeste 30 Oeste 0 -- -- 27
2020-03-11 15:00:00 21 13 Noroeste 31 Oeste 0 -- -- 28
2020-03-11 14:00:00 20.1 16 Noroeste 31 Noroeste 0 -- -- 30
2020-03-11 13:00:00 18.9 20 Noroeste 31 Noroeste 0 -- -- 30
2020-03-11 12:00:00 18.2 13 Noroeste 22 Norte 0 -- -- 32
2020-03-11 11:00:00 16.6 13 Norte 21 Norte 0 -- -- 37
2020-03-11 10:00:00 15.2 11 Norte 30 Noroeste 0 -- -- 41
2020-03-11 09:00:00 12.7 9 Norte 23 Norte 0 -- -- 45
2020-03-11 08:00:00 11 14 Norte 31 Norte 0 -- -- 49
2020-03-11 07:00:00 10.5 6 Norte 36 Noroeste 0 -- -- 65
2020-03-11 06:00:00 11.6 24 Noroeste 37 Noroeste 0 -- -- 64
2020-03-11 05:00:00 11.8 23 Noroeste 41 Noroeste 0 -- -- 61
2020-03-11 04:00:00 11.1 17 Noroeste 31 Noroeste 0 -- -- 60
2020-03-11 03:00:00 10.5 8 Norte 26 Noroeste 0 -- -- 61
2020-03-11 02:00:00 11 15 Noroeste 22 Noroeste 0 -- -- 59
2020-03-11 01:00:00 11.2 10 Nordeste 44 Oeste 0 -- -- 58
2020-03-11 00:00:00 12.6 30 Noroeste 41 Oeste 0 -- -- 52
2020-03-10 23:00:00 11.7 14 Norte 25 Norte 0 -- -- 56
2020-03-10 22:00:00 10.9 8 Nordeste 17 Nordeste 0 -- -- 58
2020-03-10 21:00:00 11.4 4 Este 17 Nordeste 0 -- -- 58
2020-03-10 20:00:00 12.8 5 Este 25 Norte 0 -- -- 53
2020-03-10 19:00:00 15 15 Norte 24 Noroeste 0 -- -- 47
2020-03-10 18:00:00 17.7 17 Noroeste 26 Oeste 0 -- -- 38
2020-03-10 17:00:00 16.7 15 Noroeste 27 Oeste 0 -- -- 40
2020-03-10 16:00:00 17.2 20 Oeste 29 Oeste 0 -- -- 38
2020-03-10 15:00:00 16.5 17 Noroeste 27 Oeste 0 -- -- 37
2020-03-10 14:00:00 15.1 18 Noroeste 34 Noroeste 0 -- -- 38
2020-03-10 13:00:00 13.7 22 Noroeste 42 Noroeste 0 -- -- 38
2020-03-10 12:00:00 11.6 28 Noroeste 45 Noroeste 0 -- -- 43
2020-03-10 11:00:00 10 30 Noroeste 45 Noroeste 0 -- -- 44
2020-03-10 10:00:00 8.1 28 Noroeste 39 Noroeste 0 -- -- 50
2020-03-10 09:00:00 6.3 23 Noroeste 42 Norte 0 -- -- 57
2020-03-10 08:00:00 4.1 25 Norte 42 Noroeste 0 -- -- 65
2020-03-10 07:00:00 3.9 19 Norte 45 Noroeste 0 -- -- 63
2020-03-10 06:00:00 3.4 19 Noroeste 28 Noroeste 0 -- -- 61
2020-03-10 05:00:00 1.7 13 Norte 22 Norte 0 -- -- 78
2020-03-10 04:00:00 1.5 12 Norte 19 Norte 0 -- -- 81
2020-03-10 03:00:00 2.1 14 Noroeste 38 Noroeste 0 -- -- 78
2020-03-10 02:00:00 2.7 22 Noroeste 41 Noroeste 0 -- -- 74
2020-03-10 01:00:00 2.6 19 Noroeste 37 Norte 0 -- -- 71
2020-03-10 00:00:00 3 24 Noroeste 48 Noroeste 0 -- -- 68
2020-03-09 23:00:00 3.4 37 Noroeste 58 Noroeste 0 -- -- 68
2020-03-09 22:00:00 3.6 31 Noroeste 58 Noroeste 0 -- -- 66
2020-03-09 21:00:00 3.7 32 Noroeste 51 Noroeste 0 -- -- 75
2020-03-09 20:00:00 4.1 28 Noroeste 40 Noroeste 0 -- -- 75
2020-03-09 19:00:00 5.9 21 Norte 49 Noroeste 0 -- -- 64
2020-03-09 18:00:00 7.7 35 Noroeste 56 Noroeste 0 -- -- 53
2020-03-09 17:00:00 9 35 Noroeste 55 Noroeste 0 -- -- 50
2020-03-09 16:00:00 9 34 Noroeste 55 Noroeste 0 -- -- 51
2020-03-09 15:00:00 9 31 Noroeste 53 Noroeste 0 -- -- 47
2020-03-09 14:00:00 8.3 30 Noroeste 55 Norte 0 -- -- 52
2020-03-09 13:00:00 7.4 33 Noroeste 51 Noroeste 0 -- -- 55
2020-03-09 12:00:00 6.1 37 Noroeste 59 Noroeste 0 -- -- 59
2020-03-09 11:00:00 5.7 37 Noroeste 54 Noroeste 0 -- -- 66
2020-03-09 10:00:00 4.7 30 Norte 48 Norte 0 -- -- 76
2020-03-09 09:00:00 4.2 28 Norte 44 Norte 0 -- -- 83
2020-03-09 08:00:00 3.3 29 Noroeste 49 Noroeste 0 -- -- 89
2020-03-09 07:00:00 3.6 29 Noroeste 48 Noroeste 0 -- -- 87
2020-03-09 06:00:00 4.1 23 Noroeste 39 Noroeste 0 -- -- 84
2020-03-09 05:00:00 3.8 19 Norte 32 Norte 0 -- -- 87
2020-03-09 04:00:00 4.7 17 Norte 30 Noroeste 0 -- -- 87
2020-03-09 03:00:00 5 13 Norte 28 Noroeste 0 -- -- 81
2020-03-09 02:00:00 5.3 17 Norte 29 Nordeste 0 -- -- 79
2020-03-09 01:00:00 5.1 13 Norte 30 Noroeste 0 -- -- 70
2020-03-09 00:00:00 5.4 9 Noroeste 31 Oeste 0 -- -- 65
2020-03-08 23:00:00 7.2 15 Noroeste 36 Noroeste 0 -- -- 55
2020-03-08 22:00:00 7.3 15 Noroeste 29 Oeste 0 -- -- 54
2020-03-08 21:00:00 8.1 9 Noroeste 19 Oeste 0 -- -- 53
2020-03-08 20:00:00 9.2 6 Oeste 25 Oeste 0 -- -- 48
2020-03-08 19:00:00 10.3 14 Oeste 26 Noroeste 0 -- -- 44
2020-03-08 18:00:00 11.7 13 Noroeste 26 Noroeste 0 -- -- 36
2020-03-08 17:00:00 13.4 13 Noroeste 33 Noroeste 0 -- -- 29
2020-03-08 16:00:00 13.7 14 Noroeste 34 Noroeste 0 -- -- 30
2020-03-08 15:00:00 13 20 Noroeste 32 Oeste 0 -- -- 26
2020-03-08 14:00:00 12.2 18 Noroeste 32 Oeste 0 -- -- 29
2020-03-08 13:00:00 11.2 19 Oeste 30 Noroeste 0 -- -- 39
2020-03-08 12:00:00 9.4 15 Noroeste 36 Oeste 0 -- -- 47
2020-03-08 11:00:00 8.3 22 Noroeste 32 Oeste 0 -- -- 42
2020-03-08 10:00:00 6.4 10 Norte 21 Norte 0 -- -- 57
2020-03-08 09:00:00 3 5 Nordeste 12 Nordeste 0 -- -- 81
2020-03-08 08:00:00 0.2 5 Nordeste 14 Este 0 -- -- 89
2020-03-08 07:00:00 -0.3 13 Nordeste 17 Nordeste 0 -- -- 93
2020-03-08 06:00:00 -0.9 7 Este 11 Nordeste 0 -- -- 93
2020-03-08 05:00:00 -0.5 7 Este 11 Nordeste 0 -- -- 93
2020-03-08 04:00:00 0.3 8 Norte 12 Nordeste 0 -- -- 91
2020-03-08 03:00:00 1.7 8 Nordeste 22 Nordeste 0 -- -- 87
2020-03-08 02:00:00 2 11 Nordeste 18 Nordeste 0 -- -- 89
2020-03-08 01:00:00 1.7 7 Norte 19 Nordeste 0 -- -- 90
2020-03-08 00:00:00 2 8 Norte 16 Noroeste 0 -- -- 89
2020-03-07 23:00:00 2 7 Norte 15 Norte 0 -- -- 89
2020-03-07 22:00:00 3.1 9 Norte 24 Nordeste 0 -- -- 86
2020-03-07 21:00:00 3.3 13 Norte 28 Norte 0 -- -- 84
2020-03-07 20:00:00 3.8 18 Norte 45 Oeste 0 -- -- 82
2020-03-07 19:00:00 5 28 Noroeste 54 Noroeste 0 -- -- 76
2020-03-07 18:00:00 6.8 23 Noroeste 61 Noroeste 0 -- -- 66
2020-03-07 17:00:00 7.4 33 Noroeste 61 Noroeste 0 -- -- 62
2020-03-07 16:00:00 7.8 35 Noroeste 68 Noroeste 0 -- -- 61
2020-03-07 15:00:00 6.8 39 Noroeste 72 Norte 0 -- -- 64
2020-03-07 14:00:00 6.3 44 Noroeste 77 Noroeste 0 -- -- 67
2020-03-07 13:00:00 5.5 47 Noroeste 95 Noroeste 0 -- -- 71
2020-03-07 12:00:00 3.9 58 Noroeste 83 Noroeste 0 -- -- 77
2020-03-07 11:00:00 2.3 48 Noroeste 67 Noroeste 0 -- -- 83
2020-03-07 10:00:00 0.4 33 Noroeste 56 Noroeste 0 -- -- 89
2020-03-07 09:00:00 0 37 Noroeste 51 Noroeste 0 -- -- 86
2020-03-07 08:00:00 -0.8 31 Noroeste 54 Noroeste 0 -- -- 83
2020-03-07 07:00:00 -0.6 32 Noroeste 55 Noroeste 0 -- -- 86
2020-03-07 06:00:00 -0.7 31 Noroeste 52 Noroeste 0 -- -- 88
2020-03-07 05:00:00 -0.9 29 Noroeste 51 Noroeste 0 -- -- 89
2020-03-07 04:00:00 -1 30 Noroeste 57 Noroeste 0 -- -- 88
2020-03-07 03:00:00 -1 36 Noroeste 67 Noroeste 0 -- -- 85
2020-03-07 02:00:00 -1.3 28 Noroeste 58 Noroeste 0 -- -- 81
2020-03-07 01:00:00 -1.1 30 Noroeste 63 Oeste 0 -- -- 81
2020-03-07 00:00:00 -0.9 34 Noroeste 68 Noroeste 0 -- -- 81
2020-03-06 23:00:00 -0.7 34 Noroeste 64 Noroeste 0 -- -- 77
2020-03-06 22:00:00 -0.1 42 Noroeste 76 Oeste 0 -- -- 74
2020-03-06 21:00:00 0.8 35 Noroeste 67 Oeste 0 -- -- 65
2020-03-06 20:00:00 1.1 33 Noroeste 63 Oeste 0 -- -- 63
2020-03-06 19:00:00 1.3 40 Noroeste 66 Noroeste 0 -- -- 63
2020-03-06 18:00:00 2 45 Noroeste 76 Noroeste 0 -- -- 61
2020-03-06 17:00:00 1.8 40 Oeste 62 Noroeste 0 -- -- 78
2020-03-06 16:00:00 2.5 38 Oeste 58 Oeste 0 -- -- 73
2020-03-06 15:00:00 1.5 41 Noroeste 63 Noroeste 0.4 -- -- 85
2020-03-06 14:00:00 -0.4 42 Noroeste 82 Noroeste 0 -- -- 91
2020-03-06 13:00:00 4.1 46 Noroeste 74 Noroeste 0 -- -- 57
2020-03-06 12:00:00 3.6 44 Noroeste 78 Noroeste 0 -- -- 57
2020-03-06 11:00:00 2.6 54 Noroeste 82 Noroeste 0 -- -- 62
2020-03-06 10:00:00 2.1 47 Oeste 77 Noroeste 0 -- -- 65
2020-03-06 09:00:00 1.8 32 Oeste 48 Oeste 0 -- -- 78
2020-03-06 08:00:00 1.4 26 Oeste 49 Oeste 0 -- -- 81
2020-03-06 07:00:00 1.5 29 Oeste 44 Oeste 0 -- -- 79
2020-03-06 06:00:00 1.4 18 Oeste 43 Oeste 0 -- -- 83
2020-03-06 05:00:00 1.8 24 Oeste 51 Oeste 0 -- -- 86
2020-03-06 04:00:00 2 30 Oeste 44 Oeste 0 -- -- 86
2020-03-06 03:00:00 2.4 33 Oeste 57 Noroeste 0 -- -- 84
2020-03-06 02:00:00 2.8 35 Oeste 58 Noroeste 0 -- -- 82
2020-03-06 01:00:00 3.1 35 Oeste 52 Oeste 0 -- -- 86
2020-03-06 00:00:00 3 38 Oeste 55 Oeste 0 -- -- 89
2020-03-05 23:00:00 3.6 30 Oeste 53 Noroeste 0 -- -- 87
2020-03-05 22:00:00 5.2 36 Oeste 63 Oeste 0 -- -- 68
2020-03-05 21:00:00 5.4 49 Oeste 67 Oeste 0 -- -- 66
2020-03-05 20:00:00 5.8 48 Oeste 71 Oeste 0 -- -- 66
2020-03-05 19:00:00 6.6 41 Oeste 64 Oeste 0 -- -- 60
2020-03-05 18:00:00 7.8 42 Noroeste 59 Noroeste 0 -- -- 52
2020-03-05 17:00:00 8.3 40 Noroeste 66 Oeste 0 -- -- 52
2020-03-05 16:00:00 8.6 38 Oeste 66 Oeste 0.2 -- -- 62
2020-03-05 15:00:00 9.2 38 Oeste 67 Oeste 0 -- -- 76
2020-03-05 14:00:00 11.1 46 Oeste 63 Oeste 0 -- -- 63
2020-03-05 13:00:00 9.1 42 Sudoeste 60 Oeste 0 -- -- 77
2020-03-05 12:00:00 9 29 Oeste 46 Sudoeste 0 -- -- 77
2020-03-05 11:00:00 8.2 28 Sudoeste 54 Oeste 0 -- -- 79
2020-03-05 10:00:00 6.9 21 Sudoeste 35 Sudoeste 0 -- -- 86
2020-03-05 09:00:00 5.9 9 Sur 18 Sudeste 0 -- -- 89
2020-03-05 08:00:00 5.4 8 Sur 17 Sudeste 0 -- -- 89
2020-03-05 07:00:00 5 8 Sur 24 Sudoeste 0 -- -- 88
2020-03-05 06:00:00 5.5 14 Sudoeste 20 Sudoeste 0 -- -- 86
2020-03-05 05:00:00 6.2 14 Sudoeste 25 Oeste 0 -- -- 81
2020-03-05 04:00:00 6.9 5 Oeste 40 Oeste 0 -- -- 74
2020-03-05 03:00:00 7.3 17 Oeste 41 Oeste 0 -- -- 74
2020-03-05 02:00:00 6.4 4 Norte 29 Oeste 0 -- -- 81
2020-03-05 01:00:00 5.1 3 Nordeste 12 Noroeste 0 -- -- 85
2020-03-05 00:00:00 5.7 9 Nordeste 22 Noroeste 0 -- -- 83
2020-03-04 23:00:00 6.6 5 Norte 25 Noroeste 0 -- -- 82
2020-03-04 22:00:00 7.8 10 Noroeste 22 Oeste 0 -- -- 77
2020-03-04 21:00:00 8.6 17 Oeste 33 Sudoeste 0 -- -- 74
2020-03-04 20:00:00 9.3 19 Oeste 27 Noroeste 0 -- -- 70
2020-03-04 19:00:00 10.2 23 Oeste 36 Oeste 0 -- -- 70
2020-03-04 18:00:00 12.2 18 Noroeste 31 Oeste 0 -- -- 56
2020-03-04 17:00:00 12.5 18 Noroeste 39 Oeste 0 -- -- 56
2020-03-04 16:00:00 11.8 21 Noroeste 39 Oeste 0 -- -- 59
2020-03-04 15:00:00 12.1 26 Oeste 44 Oeste 0 -- -- 60
2020-03-04 14:00:00 12.6 35 Oeste 45 Noroeste 0 -- -- 59
2020-03-04 13:00:00 11.6 30 Noroeste 46 Oeste 0 -- -- 65
2020-03-04 12:00:00 11.7 27 Oeste 41 Oeste 0 -- -- 70
2020-03-04 11:00:00 9.4 14 Noroeste 34 Oeste 0 -- -- 83
2020-03-04 10:00:00 8.5 18 Noroeste 34 Oeste 0 -- -- 88
2020-03-04 09:00:00 8.1 19 Oeste 35 Oeste 0 -- -- 89
2020-03-04 08:00:00 7.6 13 Noroeste 42 Noroeste 0 -- -- 90
2020-03-04 07:00:00 7.6 28 Oeste 57 Oeste 0 -- -- 88
2020-03-04 06:00:00 7.5 31 Oeste 47 Oeste 0 -- -- 86
2020-03-04 05:00:00 7 29 Oeste 46 Oeste 0 -- -- 85
2020-03-04 04:00:00 5.4 5 Norte 35 Noroeste 0 -- -- 86
2020-03-04 03:00:00 6.5 22 Noroeste 41 Oeste 0 -- -- 79
2020-03-04 02:00:00 6.8 25 Noroeste 54 Oeste 0 -- -- 84
2020-03-04 01:00:00 7.6 38 Oeste 55 Noroeste 0 -- -- 77
2020-03-04 00:00:00 7.6 30 Oeste 59 Oeste 0 -- -- 76
2020-03-03 23:00:00 7.7 36 Oeste 62 Oeste 0 -- -- 76
2020-03-03 22:00:00 7.8 35 Oeste 58 Oeste 0 -- -- 79
2020-03-03 21:00:00 7.5 31 Oeste 51 Oeste 0 -- -- 82
2020-03-03 20:00:00 8.4 36 Oeste 56 Oeste 0 -- -- 74
2020-03-03 19:00:00 8.6 40 Oeste 62 Oeste 0 -- -- 74
2020-03-03 18:00:00 8.8 45 Oeste 77 Oeste 0 -- -- 72
2020-03-03 17:00:00 8.4 56 Oeste 80 Oeste 0 -- -- 72
2020-03-03 16:00:00 9.4 49 Oeste 79 Oeste 0 -- -- 66
2020-03-03 15:00:00 8.8 37 Oeste 68 Oeste 0 -- -- 70
2020-03-03 14:00:00 7 40 Oeste 63 Oeste 0 -- -- 79
2020-03-03 13:00:00 6 35 Oeste 54 Oeste 0 -- -- 79
2020-03-03 12:00:00 4.6 26 Oeste 61 Sudoeste 0 -- -- 81
2020-03-03 11:00:00 3.3 44 Oeste 61 Sudoeste 0 -- -- 80
2020-03-03 10:00:00 1.5 27 Sudoeste 40 Sudoeste 0 -- -- 82
2020-03-03 09:00:00 0 14 Oeste 31 Oeste 0 -- -- 92
2020-03-03 08:00:00 0.3 16 Oeste 27 Oeste 0 -- -- 80
2020-03-03 07:00:00 0.1 14 Oeste 24 Oeste 0 -- -- 77
2020-03-03 06:00:00 -0.4 9 Oeste 37 Oeste 0 -- -- 78
2020-03-03 05:00:00 0.2 28 Oeste 47 Oeste 0 -- -- 74
2020-03-03 04:00:00 -0.3 18 Oeste 37 Oeste 0 -- -- 77
2020-03-03 03:00:00 -0.2 17 Oeste 38 Noroeste 0 -- -- 74
2020-03-03 02:00:00 -0.2 23 Oeste 39 Oeste 0 -- -- 73
2020-03-03 01:00:00 -0.7 23 Oeste 55 Oeste 0 -- -- 77
2020-03-03 00:00:00 -0.8 26 Oeste 51 Oeste 0 -- -- 76
2020-03-02 23:00:00 -0.5 33 Oeste 57 Oeste 0 -- -- 77
2020-03-02 22:00:00 -0.1 36 Oeste 59 Oeste 0 -- -- 79
2020-03-02 21:00:00 0 36 Oeste 64 Oeste 0 -- -- 82
2020-03-02 20:00:00 0.1 36 Oeste 52 Oeste 0 -- -- 79
2020-03-02 19:00:00 -0.9 29 Noroeste 79 Oeste 0 -- -- 91
2020-03-02 18:00:00 -0.6 49 Noroeste 101 Oeste 0 -- -- 94
2020-03-02 17:00:00 2.7 33 Oeste 61 Oeste 0 -- -- 75
2020-03-02 16:00:00 3 41 Oeste 68 Oeste 0 -- -- 73
2020-03-02 15:00:00 3.4 45 Oeste 73 Oeste 0.2 -- -- 70
2020-03-02 14:00:00 2.8 31 Oeste 64 Oeste 0 -- -- 85
2020-03-02 13:00:00 2.1 33 Oeste 81 Oeste 0 -- -- 86
2020-03-02 12:00:00 6.1 49 Oeste 78 Oeste 0 -- -- 59
2020-03-02 11:00:00 5 54 Oeste 89 Oeste 0 -- -- 71
2020-03-02 10:00:00 4.3 41 Oeste 83 Oeste 0.2 -- -- 89
2020-03-02 09:00:00 5.5 40 Oeste 81 Sudoeste 2 -- -- 90
2020-03-02 08:00:00 6.2 33 Sudoeste 50 Sur 1 -- -- 95
2020-03-02 07:00:00 6.4 29 Sudoeste 55 Sudoeste 0 -- -- 90
2020-03-02 06:00:00 6.4 32 Sur 57 Sudoeste 0 -- -- 87
2020-03-02 05:00:00 6.9 32 Sudoeste 58 Sudoeste 0.6 -- -- 88
2020-03-02 04:00:00 7.5 40 Sudoeste 65 Sudoeste 0 -- -- 85
2020-03-02 03:00:00 7.4 41 Sudoeste 63 Sudoeste 0 -- -- 86
2020-03-02 02:00:00 7.2 32 Sudoeste 65 Sudoeste 0 -- -- 88
2020-03-02 01:00:00 6.8 45 Sudoeste 66 Sudoeste 0 -- -- 90
2020-03-02 00:00:00 6.7 49 Sudoeste 67 Sudoeste 0 -- -- 88